Time;durP1;ratioP1;P1;durP2;ratioP2;P2;SDS_P1;SDS_P2;PMS_P1;PMS_P2;Temp;Humidity;BMP_temperature;BMP_pressure;BME280_temperature;BME280_humidity;BME280_pressure;Samples;Min_cycle;Max_cycle;Signal;HPM_P1;HPM_P2
2023/03/29 00:00:49;;;;;;;7.03;2.38;;;;;;;;;;7387682;19;20358;-70
2023/03/29 00:03:15;;;;;;;4.18;2.30;;;;;;;;;;7388196;19;20570;-71
2023/03/29 00:05:41;;;;;;;5.55;2.08;;;;;;;;;;7388569;19;19995;-69
2023/03/29 00:08:07;;;;;;;5.80;2.33;;;;;;;;;;7390791;19;20022;-70
2023/03/29 00:10:33;;;;;;;3.58;2.00;;;;;;;;;;7387070;19;20079;-70
2023/03/29 00:12:59;;;;;;;5.70;2.13;;;;;;;;;;7382515;19;20357;-70
2023/03/29 00:15:25;;;;;;;4.75;2.15;;;;;;;;;;7387497;19;20424;-70
2023/03/29 00:17:51;;;;;;;3.40;2.05;;;;;;;;;;7387715;19;20027;-70
2023/03/29 00:20:16;;;;;;;5.75;2.58;;;;;;;;;;7387062;19;20019;-71
2023/03/29 00:22:42;;;;;;;5.43;2.30;;;;;;;;;;7384068;19;19995;-69
2023/03/29 00:25:10;;;;;;;3.72;2.08;;;;;;;;;;7387436;19;19999;-69
2023/03/29 00:27:35;;;;;;;4.05;2.00;;;;;;;;;;7387531;19;20397;-71
2023/03/29 00:30:02;;;;;;;5.20;2.33;;;;;;;;;;7385699;19;20002;-71
2023/03/29 00:32:28;;;;;;;3.80;1.90;;;;;;;;;;7383418;19;20444;-71
2023/03/29 00:34:55;;;;;;;4.13;2.17;;;;;;;;;;7387314;19;19990;-69
2023/03/29 00:37:21;;;;;;;5.68;2.55;;;;;;;;;;7385835;19;20329;-70
2023/03/29 00:39:47;;;;;;;5.45;2.22;;;;;;;;;;7386670;19;20099;-71
2023/03/29 00:42:14;;;;;;;3.55;2.00;;;;;;;;;;7383358;19;20336;-71
2023/03/29 00:45:14;;;;;;;6.90;2.40;;;;;;;;;;7386419;19;20006;-70
2023/03/29 00:47:50;;;;;;;7.15;2.75;;;;;;;;;;7386851;19;20019;-72
2023/03/29 00:50:28;;;;;;;3.08;2.00;;;;;;;;;;7384221;19;19994;-70
2023/03/29 00:53:13;;;;;;;4.65;2.05;;;;;;;;;;7385230;19;20368;-71
2023/03/29 00:56:17;;;;;;;3.05;1.90;;;;;;;;;;7386364;19;20092;-70
2023/03/29 00:58:57;;;;;;;4.50;1.95;;;;;;;;;;7382249;19;19999;-70
2023/03/29 01:01:41;;;;;;;5.90;2.30;;;;;;;;;;7384171;19;20002;-70
2023/03/29 01:04:22;;;;;;;6.03;2.20;;;;;;;;;;7386741;19;20014;-70
2023/03/29 01:06:59;;;;;;;4.60;2.15;;;;;;;;;;7384424;19;20024;-71
2023/03/29 01:09:28;;;;;;;4.90;2.20;;;;;;;;;;7384786;19;20395;-70
2023/03/29 01:11:56;;;;;;;3.63;1.88;;;;;;;;;;7389068;19;20464;-70
2023/03/29 01:14:34;;;;;;;4.30;2.13;;;;;;;;;;7384909;19;20010;-70
2023/03/29 01:16:59;;;;;;;4.32;2.10;;;;;;;;;;7384698;19;20353;-70
2023/03/29 01:19:29;;;;;;;4.22;2.10;;;;;;;;;;7386174;19;20001;-71
2023/03/29 01:22:12;;;;;;;6.05;2.60;;;;;;;;;;7383984;19;20599;-69
2023/03/29 01:25:16;;;;;;;6.22;2.13;;;;;;;;;;7392727;19;20002;-71
2023/03/29 01:27:53;;;;;;;8.00;2.00;;;;;;;;;;7394528;19;20006;-70
2023/03/29 01:30:30;;;;;;;3.88;2.25;;;;;;;;;;7390320;19;20504;-71
2023/03/29 01:33:04;;;;;;;3.55;2.05;;;;;;;;;;7388084;19;20361;-71
2023/03/29 01:35:42;;;;;;;3.63;2.20;;;;;;;;;;7392154;19;20006;-71
2023/03/29 01:38:23;;;;;;;4.30;2.40;;;;;;;;;;7390205;19;19998;-70
2023/03/29 01:40:48;;;;;;;5.13;1.98;;;;;;;;;;7391170;19;20015;-71
2023/03/29 01:43:38;;;;;;;4.20;2.35;;;;;;;;;;7391864;19;20003;-71
2023/03/29 01:46:10;;;;;;;5.07;2.03;;;;;;;;;;7391859;19;20001;-71
2023/03/29 01:48:47;;;;;;;5.10;2.17;;;;;;;;;;7391378;19;20511;-71
2023/03/29 01:51:36;;;;;;;3.83;2.20;;;;;;;;;;7390305;19;20010;-71
2023/03/29 01:54:10;;;;;;;3.70;1.98;;;;;;;;;;7390215;19;20344;-72
2023/03/29 01:56:40;;;;;;;3.95;2.00;;;;;;;;;;7392008;19;19999;-70
2023/03/29 01:59:10;;;;;;;3.58;2.05;;;;;;;;;;7391629;19;20482;-70
2023/03/29 02:01:48;;;;;;;2.92;1.80;;;;;;;;;;7388608;19;20427;-71
2023/03/29 02:04:18;;;;;;;5.07;1.90;;;;;;;;;;7394116;19;20116;-71
2023/03/29 02:06:45;;;;;;;2.53;1.77;;;;;;;;;;7391272;19;20083;-70
2023/03/29 02:09:11;;;;;;;3.00;2.00;;;;;;;;;;7390176;19;19994;-70
2023/03/29 02:11:37;;;;;;;4.82;2.13;;;;;;;;;;7390683;19;20007;-70
2023/03/29 02:14:02;;;;;;;4.13;2.10;;;;;;;;;;7391157;19;19990;-71
2023/03/29 02:16:33;;;;;;;5.30;2.20;;;;;;;;;;7391163;19;20003;-71
2023/03/29 02:18:59;;;;;;;5.43;2.55;;;;;;;;;;7390051;19;20061;-71
2023/03/29 02:21:30;;;;;;;5.38;2.08;;;;;;;;;;7387981;19;20011;-71
2023/03/29 02:24:00;;;;;;;3.95;2.05;;;;;;;;;;7390945;19;20018;-71
2023/03/29 02:26:26;;;;;;;6.80;2.42;;;;;;;;;;7391238;19;20011;-71
2023/03/29 02:28:52;;;;;;;4.43;2.20;;;;;;;;;;7389969;19;19999;-72
2023/03/29 02:31:29;;;;;;;3.08;1.80;;;;;;;;;;7389632;19;20005;-70
2023/03/29 02:34:00;;;;;;;5.57;2.58;;;;;;;;;;7394984;19;20464;-70
2023/03/29 02:36:40;;;;;;;5.78;2.17;;;;;;;;;;7390125;19;20009;-70
2023/03/29 02:39:08;;;;;;;4.70;2.07;;;;;;;;;;7391775;19;20266;-71
2023/03/29 02:41:37;;;;;;;6.03;2.35;;;;;;;;;;7389302;19;20796;-71
2023/03/29 02:44:06;;;;;;;4.80;2.45;;;;;;;;;;7390550;19;20011;-71
2023/03/29 02:46:33;;;;;;;6.35;2.55;;;;;;;;;;7388795;19;20002;-71
2023/03/29 02:48:59;;;;;;;4.38;2.42;;;;;;;;;;7392084;19;19999;-70
2023/03/29 02:51:30;;;;;;;5.30;2.70;;;;;;;;;;7388612;19;19999;-70
2023/03/29 02:54:00;;;;;;;6.43;2.80;;;;;;;;;;7390443;19;20001;-70
2023/03/29 02:56:26;;;;;;;6.88;2.60;;;;;;;;;;7390281;19;20023;-70
2023/03/29 02:58:51;;;;;;;5.75;2.50;;;;;;;;;;7387934;19;20377;-70
2023/03/29 03:01:17;;;;;;;5.68;2.40;;;;;;;;;;7388380;19;20050;-70
2023/03/29 03:03:43;;;;;;;4.18;2.35;;;;;;;;;;7389541;19;20003;-70
2023/03/29 03:06:09;;;;;;;7.03;2.53;;;;;;;;;;7389404;19;20019;-70
2023/03/29 03:08:35;;;;;;;5.57;2.75;;;;;;;;;;7388611;19;19994;-71
2023/03/29 03:11:00;;;;;;;6.43;2.60;;;;;;;;;;7386639;19;19998;-71
2023/03/29 03:13:26;;;;;;;6.00;2.95;;;;;;;;;;7389188;19;20070;-70
2023/03/29 03:15:51;;;;;;;5.25;2.38;;;;;;;;;;7389163;19;19999;-70
2023/03/29 03:18:17;;;;;;;4.43;2.63;;;;;;;;;;7391907;19;19999;-71
2023/03/29 03:20:45;;;;;;;6.85;2.85;;;;;;;;;;7385971;19;20015;-69
2023/03/29 03:23:11;;;;;;;10.30;3.58;;;;;;;;;;7388661;19;20006;-70
2023/03/29 03:25:36;;;;;;;5.18;2.55;;;;;;;;;;7388483;19;20002;-69
2023/03/29 03:28:01;;;;;;;4.93;2.88;;;;;;;;;;7388793;19;19998;-70
2023/03/29 03:30:27;;;;;;;5.28;2.80;;;;;;;;;;7387878;19;20001;-71
2023/03/29 03:32:53;;;;;;;6.43;2.60;;;;;;;;;;7385872;19;20102;-72
2023/03/29 03:35:20;;;;;;;5.40;2.85;;;;;;;;;;7388729;19;20358;-73
2023/03/29 03:37:45;;;;;;;4.80;2.50;;;;;;;;;;7388776;19;19999;-72
2023/03/29 03:40:12;;;;;;;5.68;3.00;;;;;;;;;;7386396;19;20418;-72
2023/03/29 03:42:39;;;;;;;12.43;3.25;;;;;;;;;;7387084;19;20013;-72
2023/03/29 03:45:05;;;;;;;4.45;2.92;;;;;;;;;;7388829;19;20002;-71
2023/03/29 03:47:30;;;;;;;5.25;2.90;;;;;;;;;;7386266;19;20333;-73
2023/03/29 03:49:56;;;;;;;6.68;2.97;;;;;;;;;;7386256;19;20002;-73
2023/03/29 03:52:21;;;;;;;9.00;2.88;;;;;;;;;;7386511;19;20337;-73
2023/03/29 03:54:48;;;;;;;6.97;2.70;;;;;;;;;;7387938;19;20003;-73
2023/03/29 03:57:14;;;;;;;6.20;2.60;;;;;;;;;;7388123;19;20002;-72
2023/03/29 03:59:39;;;;;;;7.10;3.20;;;;;;;;;;7391810;19;20367;-72
2023/03/29 04:02:05;;;;;;;9.93;4.03;;;;;;;;;;7386387;19;20002;-72
2023/03/29 04:04:30;;;;;;;12.52;4.30;;;;;;;;;;7387443;19;20499;-72
2023/03/29 04:07:01;;;;;;;18.85;8.90;;;;;;;;;;7388002;19;19995;-72
2023/03/29 04:09:28;;;;;;;17.67;7.85;;;;;;;;;;7386388;19;20007;-71
2023/03/29 04:11:54;;;;;;;15.45;7.22;;;;;;;;;;7386452;19;20006;-72
2023/03/29 04:14:20;;;;;;;15.13;8.52;;;;;;;;;;7385771;19;20491;-72
2023/03/29 04:16:46;;;;;;;18.08;8.20;;;;;;;;;;7388425;19;20014;-71
2023/03/29 04:19:12;;;;;;;16.38;8.43;;;;;;;;;;7387153;19;20026;-72
2023/03/29 04:21:37;;;;;;;18.77;7.88;;;;;;;;;;7386769;19;20036;-73
2023/03/29 04:24:03;;;;;;;15.05;6.97;;;;;;;;;;7387615;19;20369;-73
2023/03/29 04:26:29;;;;;;;12.35;6.05;;;;;;;;;;7388771;19;19995;-72
2023/03/29 04:28:54;;;;;;;13.43;5.93;;;;;;;;;;7387736;19;20421;-72
2023/03/29 04:31:20;;;;;;;14.68;7.45;;;;;;;;;;7390321;19;20087;-72
2023/03/29 04:33:46;;;;;;;12.60;6.55;;;;;;;;;;7386364;19;19999;-71
2023/03/29 04:36:12;;;;;;;13.95;6.93;;;;;;;;;;7388084;19;19998;-73
2023/03/29 04:38:40;;;;;;;14.10;7.28;;;;;;;;;;7392184;19;19995;-74
2023/03/29 04:41:07;;;;;;;15.95;7.80;;;;;;;;;;7391680;19;20037;-71
2023/03/29 04:43:33;;;;;;;25.13;12.48;;;;;;;;;;7391582;19;20478;-72
2023/03/29 04:45:58;;;;;;;15.15;6.78;;;;;;;;;;7391872;19;20006;-72
2023/03/29 04:48:24;;;;;;;13.27;5.20;;;;;;;;;;7384974;19;20003;-72
2023/03/29 04:50:50;;;;;;;9.45;5.45;;;;;;;;;;7390499;19;20970;-71
2023/03/29 04:53:27;;;;;;;7.40;4.13;;;;;;;;;;7388849;19;19998;-72
2023/03/29 04:55:54;;;;;;;8.80;3.90;;;;;;;;;;7388761;19;19999;-71
2023/03/29 04:58:20;;;;;;;7.57;3.80;;;;;;;;;;7391756;19;19999;-73
2023/03/29 05:00:46;;;;;;;7.40;3.50;;;;;;;;;;7397470;19;19994;-71
2023/03/29 05:03:13;;;;;;;6.88;3.25;;;;;;;;;;7396036;19;20005;-73
2023/03/29 05:05:39;;;;;;;5.93;2.97;;;;;;;;;;7397406;19;20036;-73
2023/03/29 05:08:04;;;;;;;6.72;3.00;;;;;;;;;;7395007;19;19998;-73
2023/03/29 05:10:30;;;;;;;7.00;3.17;;;;;;;;;;7396259;19;20007;-73
2023/03/29 05:12:55;;;;;;;5.68;3.08;;;;;;;;;;7393969;19;20011;-73
2023/03/29 05:15:21;;;;;;;6.45;3.15;;;;;;;;;;7396151;19;19994;-73
2023/03/29 05:17:47;;;;;;;6.40;3.80;;;;;;;;;;7396390;19;20349;-73
2023/03/29 05:20:13;;;;;;;5.22;3.28;;;;;;;;;;7395772;19;20026;-74
2023/03/29 05:22:39;;;;;;;6.57;2.75;;;;;;;;;;7394746;19;20028;-73
2023/03/29 05:25:05;;;;;;;5.72;3.38;;;;;;;;;;7396999;19;20017;-73
2023/03/29 05:27:30;;;;;;;7.80;3.60;;;;;;;;;;7393828;19;20011;-76
2023/03/29 05:29:56;;;;;;;5.72;3.38;;;;;;;;;;7394414;19;19999;-64
2023/03/29 05:32:21;;;;;;;6.85;3.30;;;;;;;;;;7392053;19;19990;-65
2023/03/29 05:34:47;;;;;;;7.32;3.20;;;;;;;;;;7396099;19;20332;-74
2023/03/29 05:37:12;;;;;;;6.00;3.28;;;;;;;;;;7393180;19;20002;-73
2023/03/29 05:39:37;;;;;;;12.15;8.68;;;;;;;;;;7393167;19;19994;-76
2023/03/29 05:42:03;;;;;;;5.78;3.03;;;;;;;;;;7390949;19;20583;-74
2023/03/29 05:44:29;;;;;;;8.05;3.75;;;;;;;;;;7395754;19;20338;-74
2023/03/29 05:46:56;;;;;;;6.07;3.30;;;;;;;;;;7395661;19;20003;-74
2023/03/29 05:49:21;;;;;;;9.95;3.45;;;;;;;;;;7395463;19;20009;-75
2023/03/29 05:51:46;;;;;;;7.68;3.85;;;;;;;;;;7394078;19;20463;-74
2023/03/29 05:54:12;;;;;;;7.63;4.10;;;;;;;;;;7396078;19;20002;-74
2023/03/29 05:56:37;;;;;;;10.85;4.32;;;;;;;;;;7397069;19;20412;-75
2023/03/29 05:59:02;;;;;;;6.80;3.67;;;;;;;;;;7396892;19;20102;-75
2023/03/29 06:01:28;;;;;;;8.80;4.10;;;;;;;;;;7394141;19;20010;-75
2023/03/29 06:03:55;;;;;;;7.97;3.90;;;;;;;;;;7396767;19;20054;-75
2023/03/29 06:06:20;;;;;;;9.27;4.28;;;;;;;;;;7393754;19;20526;-73
2023/03/29 06:08:46;;;;;;;9.73;4.10;;;;;;;;;;7391640;19;20015;-74
2023/03/29 06:11:12;;;;;;;10.82;3.65;;;;;;;;;;7393625;19;20003;-75
2023/03/29 06:13:38;;;;;;;10.57;3.60;;;;;;;;;;7393697;19;20038;-74
2023/03/29 06:16:05;;;;;;;9.10;4.18;;;;;;;;;;7394806;19;20105;-75
2023/03/29 06:18:34;;;;;;;8.23;3.97;;;;;;;;;;7393063;19;20002;-75
2023/03/29 06:21:03;;;;;;;8.02;4.32;;;;;;;;;;7393124;19;20050;-72
2023/03/29 06:23:29;;;;;;;8.40;4.32;;;;;;;;;;7392091;19;20003;-74
2023/03/29 06:25:55;;;;;;;8.05;4.25;;;;;;;;;;7394924;19;20345;-73
2023/03/29 06:28:21;;;;;;;8.23;4.57;;;;;;;;;;7393745;19;20027;-75
2023/03/29 06:30:48;;;;;;;10.38;5.70;;;;;;;;;;7387797;19;19994;-74
2023/03/29 06:33:13;;;;;;;11.38;5.45;;;;;;;;;;7392986;19;20009;-74
2023/03/29 06:35:44;;;;;;;16.48;6.45;;;;;;;;;;7396254;19;20002;-74
2023/03/29 06:38:10;;;;;;;13.15;5.70;;;;;;;;;;7392152;19;20349;-73
2023/03/29 06:40:39;;;;;;;11.25;5.00;;;;;;;;;;7391509;19;20002;-73
2023/03/29 06:43:05;;;;;;;8.52;3.60;;;;;;;;;;7386011;19;20009;-74
2023/03/29 06:45:34;;;;;;;9.93;3.90;;;;;;;;;;7393344;19;20504;-74
2023/03/29 06:47:59;;;;;;;6.90;3.97;;;;;;;;;;7394403;19;19994;-74
2023/03/29 06:50:25;;;;;;;9.93;3.90;;;;;;;;;;7388768;19;20018;-76
2023/03/29 06:52:51;;;;;;;6.35;3.50;;;;;;;;;;7391179;19;19998;-74
2023/03/29 06:55:17;;;;;;;6.40;3.65;;;;;;;;;;7393289;19;20002;-74
2023/03/29 06:57:43;;;;;;;6.78;3.72;;;;;;;;;;7394517;19;20342;-74
2023/03/29 07:00:26;;;;;;;6.82;3.38;;;;;;;;;;7390249;19;20005;-74
2023/03/29 07:02:56;;;;;;;13.23;4.25;;;;;;;;;;7390849;19;20006;-73
2023/03/29 07:05:23;;;;;;;7.55;3.83;;;;;;;;;;7393315;19;20038;-74
2023/03/29 07:08:12;;;;;;;9.13;4.05;;;;;;;;;;7393538;19;20446;-74
2023/03/29 07:10:40;;;;;;;17.77;8.05;;;;;;;;;;7390684;19;20002;-75
2023/03/29 07:13:08;;;;;;;61.22;32.28;;;;;;;;;;7389597;19;19991;-75
2023/03/29 07:15:33;;;;;;;47.75;25.77;;;;;;;;;;7389479;19;20010;-74
2023/03/29 07:18:00;;;;;;;39.28;22.48;;;;;;;;;;7389055;19;20009;-75
2023/03/29 07:20:26;;;;;;;15.65;8.68;;;;;;;;;;7385799;19;20528;-74
2023/03/29 07:22:52;;;;;;;13.45;7.10;;;;;;;;;;7387841;19;20027;-74
2023/03/29 07:25:20;;;;;;;33.83;21.58;;;;;;;;;;7391273;19;20003;-74
2023/03/29 07:27:46;;;;;;;15.20;8.73;;;;;;;;;;7393144;19;20371;-73
2023/03/29 07:30:15;;;;;;;29.58;14.50;;;;;;;;;;7388269;19;20455;-74
2023/03/29 07:32:43;;;;;;;9.18;4.75;;;;;;;;;;7389137;19;20002;-74
2023/03/29 07:35:09;;;;;;;7.45;4.03;;;;;;;;;;7388282;19;20040;-75
2023/03/29 07:37:38;;;;;;;6.95;3.45;;;;;;;;;;7389948;19;20472;-74
2023/03/29 07:40:17;;;;;;;8.45;3.28;;;;;;;;;;7388232;19;20017;-75
2023/03/29 07:42:43;;;;;;;8.65;3.80;;;;;;;;;;7389135;19;20003;-75
2023/03/29 07:45:09;;;;;;;6.88;3.45;;;;;;;;;;7389430;19;20002;-75
2023/03/29 07:47:34;;;;;;;10.38;4.03;;;;;;;;;;7391783;19;20002;-74
2023/03/29 07:50:01;;;;;;;7.22;3.88;;;;;;;;;;7391134;19;20082;-75
2023/03/29 07:52:29;;;;;;;7.80;3.63;;;;;;;;;;7387077;19;20022;-74
2023/03/29 07:54:55;;;;;;;8.52;4.00;;;;;;;;;;7390139;19;20032;-75
2023/03/29 07:57:22;;;;;;;7.45;3.72;;;;;;;;;;7391155;19;20073;-75
2023/03/29 07:59:47;;;;;;;8.65;3.58;;;;;;;;;;7390903;19;20019;-75
2023/03/29 08:02:13;;;;;;;5.95;2.80;;;;;;;;;;7385286;19;20014;-75
2023/03/29 08:04:39;;;;;;;6.07;2.70;;;;;;;;;;7389186;19;20036;-75
2023/03/29 08:07:04;;;;;;;5.82;2.67;;;;;;;;;;7390247;19;20624;-75
2023/03/29 08:09:30;;;;;;;6.20;3.10;;;;;;;;;;7389336;19;20637;-75
2023/03/29 08:11:56;;;;;;;6.15;3.13;;;;;;;;;;7390134;19;20023;-73
2023/03/29 08:14:22;;;;;;;5.05;2.67;;;;;;;;;;7388440;19;20003;-74
2023/03/29 08:16:48;;;;;;;5.57;2.90;;;;;;;;;;7389380;19;20073;-74
2023/03/29 08:19:13;;;;;;;6.00;3.30;;;;;;;;;;7390064;19;19995;-75
2023/03/29 08:21:39;;;;;;;6.80;2.80;;;;;;;;;;7389580;19;20002;-75
2023/03/29 08:24:04;;;;;;;6.85;2.80;;;;;;;;;;7387143;19;20354;-74
2023/03/29 08:26:30;;;;;;;5.80;2.40;;;;;;;;;;7390193;19;20041;-74
2023/03/29 08:28:55;;;;;;;7.40;2.60;;;;;;;;;;7388299;19;20013;-73
2023/03/29 08:31:21;;;;;;;5.22;2.70;;;;;;;;;;7388292;19;20002;-74
2023/03/29 08:33:46;;;;;;;6.72;2.83;;;;;;;;;;7394774;19;20023;-75
2023/03/29 08:36:11;;;;;;;4.88;2.67;;;;;;;;;;7396680;19;20001;-73
2023/03/29 08:38:37;;;;;;;5.38;2.83;;;;;;;;;;7397923;19;20012;-74
2023/03/29 08:41:20;;;;;;;10.27;4.75;;;;;;;;;;7394801;19;20392;-75
2023/03/29 08:44:14;;;;;;;7.35;3.08;;;;;;;;;;7396521;19;19999;-75
2023/03/29 08:46:49;;;;;;;5.97;3.08;;;;;;;;;;7397099;19;19999;-76
2023/03/29 08:49:15;;;;;;;6.38;3.15;;;;;;;;;;7394143;19;20385;-75
2023/03/29 08:51:48;;;;;;;6.57;3.45;;;;;;;;;;7397215;19;20350;-74
2023/03/29 08:54:19;;;;;;;5.80;3.30;;;;;;;;;;7396799;19;20368;-74
2023/03/29 08:56:46;;;;;;;5.90;3.30;;;;;;;;;;7395533;19;20003;-75
2023/03/29 08:59:21;;;;;;;7.03;3.45;;;;;;;;;;7397009;19;20010;-74
2023/03/29 09:01:49;;;;;;;6.88;3.33;;;;;;;;;;7396105;19;20003;-74
2023/03/29 09:04:22;;;;;;;6.28;3.20;;;;;;;;;;7395518;19;20011;-73
2023/03/29 09:06:47;;;;;;;5.68;3.38;;;;;;;;;;7394252;19;20003;-75
2023/03/29 09:09:16;;;;;;;6.00;3.13;;;;;;;;;;7395631;19;20023;-74
2023/03/29 09:12:04;;;;;;;5.70;3.40;;;;;;;;;;7395863;19;20026;-74
2023/03/29 09:14:36;;;;;;;8.85;3.58;;;;;;;;;;7393808;19;20026;-75
2023/03/29 09:17:26;;;;;;;8.77;3.78;;;;;;;;;;7394794;19;20006;-74
2023/03/29 09:19:55;;;;;;;7.38;3.38;;;;;;;;;;7397334;19;19999;-73
2023/03/29 09:22:40;;;;;;;5.25;3.00;;;;;;;;;;7392121;19;20382;-74
2023/03/29 09:25:28;;;;;;;7.55;3.42;;;;;;;;;;7376531;19;20317;-74
2023/03/29 09:28:03;;;;;;;5.28;3.00;;;;;;;;;;7401457;19;20011;-74
2023/03/29 09:30:37;;;;;;;6.63;3.63;;;;;;;;;;7398112;19;20007;-74
2023/03/29 09:33:26;;;;;;;7.47;3.55;;;;;;;;;;7398064;19;20447;-75
2023/03/29 09:36:04;;;;;;;6.15;3.50;;;;;;;;;;7400917;19;20003;-76
2023/03/29 09:38:31;;;;;;;5.30;3.05;;;;;;;;;;7397578;19;20434;-75
2023/03/29 09:41:03;;;;;;;5.57;2.95;;;;;;;;;;7394233;19;20016;-73
2023/03/29 09:43:33;;;;;;;6.22;3.00;;;;;;;;;;7396108;19;20013;-73
2023/03/29 09:46:03;;;;;;;9.50;3.28;;;;;;;;;;7394438;19;19994;-73
2023/03/29 09:48:33;;;;;;;8.40;3.55;;;;;;;;;;7393340;19;20031;-74
2023/03/29 09:51:00;;;;;;;6.53;3.63;;;;;;;;;;7392275;19;20001;-75
2023/03/29 09:53:26;;;;;;;10.65;3.13;;;;;;;;;;7395414;19;19998;-75
2023/03/29 09:55:51;;;;;;;6.30;3.10;;;;;;;;;;7394590;19;20002;-75
2023/03/29 09:58:21;;;;;;;6.03;2.97;;;;;;;;;;7392756;19;20029;-75
2023/03/29 10:00:48;;;;;;;5.15;2.92;;;;;;;;;;7392800;19;19998;-75
2023/03/29 10:03:33;;;;;;;7.03;3.42;;;;;;;;;;7389918;19;20002;-75
2023/03/29 10:06:01;;;;;;;5.57;3.00;;;;;;;;;;7395170;19;20062;-73
2023/03/29 10:08:43;;;;;;;6.68;3.40;;;;;;;;;;7392402;19;20062;-73
2023/03/29 10:11:16;;;;;;;6.47;3.00;;;;;;;;;;7393091;19;20017;-75
2023/03/29 10:13:45;;;;;;;6.82;3.05;;;;;;;;;;7394061;19;19998;-73
2023/03/29 10:16:21;;;;;;;9.88;3.35;;;;;;;;;;7392088;19;20335;-73
2023/03/29 10:18:49;;;;;;;5.70;3.15;;;;;;;;;;7393152;19;20357;-75
2023/03/29 10:21:16;;;;;;;7.75;3.33;;;;;;;;;;7393360;19;20011;-74
2023/03/29 10:23:42;;;;;;;6.45;3.45;;;;;;;;;;7393333;19;20480;-74
2023/03/29 10:26:20;;;;;;;7.97;3.08;;;;;;;;;;7391633;19;20009;-75
2023/03/29 10:28:45;;;;;;;10.05;3.25;;;;;;;;;;7389530;19;19998;-72
2023/03/29 10:31:17;;;;;;;6.93;3.03;;;;;;;;;;7392868;19;20095;-73
2023/03/29 10:33:42;;;;;;;7.53;3.67;;;;;;;;;;7394172;19;20010;-73
2023/03/29 10:36:12;;;;;;;6.05;3.28;;;;;;;;;;7392263;19;20002;-73
2023/03/29 10:38:38;;;;;;;7.68;3.55;;;;;;;;;;7392154;19;19999;-74
2023/03/29 10:41:11;;;;;;;4.35;2.42;;;;;;;;;;7392349;19;20021;-75
2023/03/29 10:43:48;;;;;;;7.40;2.95;;;;;;;;;;7393844;19;20011;-73
2023/03/29 10:46:26;;;;;;;6.50;3.40;;;;;;;;;;7391973;19;20309;-75
2023/03/29 10:48:56;;;;;;;7.40;3.30;;;;;;;;;;7391425;19;20014;-75
2023/03/29 10:51:24;;;;;;;8.13;3.38;;;;;;;;;;7391796;19;20003;-73
2023/03/29 10:53:49;;;;;;;5.95;3.42;;;;;;;;;;7393610;19;20065;-75
2023/03/29 10:56:26;;;;;;;7.18;3.45;;;;;;;;;;7390792;19;20022;-75
2023/03/29 10:59:12;;;;;;;7.07;3.35;;;;;;;;;;7392160;19;20018;-75
2023/03/29 11:01:56;;;;;;;7.32;3.42;;;;;;;;;;7392059;19;20432;-75
2023/03/29 11:04:27;;;;;;;8.48;3.38;;;;;;;;;;7392982;19;20030;-75
2023/03/29 11:07:05;;;;;;;16.35;4.68;;;;;;;;;;7391450;19;20002;-75
2023/03/29 11:09:52;;;;;;;6.95;3.25;;;;;;;;;;7393563;19;20023;-74
2023/03/29 11:12:43;;;;;;;8.32;3.53;;;;;;;;;;7393896;19;20067;-75
2023/03/29 11:15:17;;;;;;;6.97;3.50;;;;;;;;;;7391912;19;20058;-73
2023/03/29 11:17:58;;;;;;;6.93;3.67;;;;;;;;;;7391725;19;20408;-73
2023/03/29 11:20:34;;;;;;;6.07;3.75;;;;;;;;;;7393673;19;20074;-74
2023/03/29 11:23:26;;;;;;;7.68;3.78;;;;;;;;;;7391525;19;20021;-74
2023/03/29 11:25:57;;;;;;;8.57;3.45;;;;;;;;;;7392855;19;20334;-74
2023/03/29 11:28:56;;;;;;;11.32;3.90;;;;;;;;;;7392484;19;20019;-73
2023/03/29 11:31:33;;;;;;;8.82;3.30;;;;;;;;;;7390635;19;20002;-76
2023/03/29 11:34:24;;;;;;;6.38;3.42;;;;;;;;;;7392625;19;20065;-75
2023/03/29 11:37:02;;;;;;;6.60;3.60;;;;;;;;;;7391859;19;19998;-75
2023/03/29 11:39:52;;;;;;;6.40;3.60;;;;;;;;;;7393464;19;20269;-75
2023/03/29 11:42:28;;;;;;;5.27;3.10;;;;;;;;;;7388285;19;20464;-75
2023/03/29 11:44:56;;;;;;;6.00;3.17;;;;;;;;;;7390196;19;20476;-75
2023/03/29 11:47:30;;;;;;;6.72;2.80;;;;;;;;;;7391038;19;20003;-75
2023/03/29 11:50:06;;;;;;;6.25;2.67;;;;;;;;;;7391847;19;19987;-74
2023/03/29 11:52:52;;;;;;;8.05;2.95;;;;;;;;;;7389999;19;20002;-75
2023/03/29 11:55:22;;;;;;;8.38;3.38;;;;;;;;;;7392844;19;20014;-75
2023/03/29 11:58:12;;;;;;;5.53;2.90;;;;;;;;;;7391820;19;19991;-75
2023/03/29 12:00:44;;;;;;;6.93;2.80;;;;;;;;;;7389987;19;20062;-75
2023/03/29 12:03:14;;;;;;;8.38;2.90;;;;;;;;;;7389528;19;19998;-75
2023/03/29 12:05:42;;;;;;;8.40;3.33;;;;;;;;;;7390519;19;19998;-74
2023/03/29 12:08:21;;;;;;;5.25;2.70;;;;;;;;;;7386439;19;20022;-74
2023/03/29 12:11:12;;;;;;;10.07;4.03;;;;;;;;;;7389059;19;20009;-73
2023/03/29 12:13:57;;;;;;;5.55;3.03;;;;;;;;;;7392211;19;20280;-73
2023/03/29 12:16:38;;;;;;;8.23;3.15;;;;;;;;;;7388871;19;19998;-75
2023/03/29 12:19:20;;;;;;;6.70;3.20;;;;;;;;;;7389332;19;19997;-75
2023/03/29 12:21:46;;;;;;;7.03;3.00;;;;;;;;;;7387143;19;19999;-74
2023/03/29 12:24:14;;;;;;;7.70;3.25;;;;;;;;;;7390697;19;19995;-74
2023/03/29 12:26:59;;;;;;;7.35;3.30;;;;;;;;;;7389427;19;20019;-74
2023/03/29 12:29:52;;;;;;;9.05;3.50;;;;;;;;;;7389675;19;20301;-75
2023/03/29 12:32:49;;;;;;;9.75;3.10;;;;;;;;;;7386483;19;19994;-75
2023/03/29 12:35:32;;;;;;;6.80;3.13;;;;;;;;;;7390615;19;19999;-75
2023/03/29 12:38:01;;;;;;;6.70;3.33;;;;;;;;;;7388253;19;20020;-75
2023/03/29 12:40:38;;;;;;;6.50;3.28;;;;;;;;;;7389550;19;19995;-73
2023/03/29 12:43:07;;;;;;;5.63;3.03;;;;;;;;;;7388183;19;20006;-75
2023/03/29 12:45:38;;;;;;;10.13;2.90;;;;;;;;;;7385855;19;19995;-73
2023/03/29 12:48:06;;;;;;;6.38;3.25;;;;;;;;;;7389149;19;19995;-74
2023/03/29 12:50:45;;;;;;;6.32;3.10;;;;;;;;;;7387598;19;20028;-74
2023/03/29 12:53:25;;;;;;;5.28;2.83;;;;;;;;;;7388148;19;20006;-73
2023/03/29 12:56:11;;;;;;;6.03;2.90;;;;;;;;;;7390444;19;20222;-74
2023/03/29 12:59:15;;;;;;;6.95;3.10;;;;;;;;;;7390257;19;20054;-73
2023/03/29 13:01:56;;;;;;;6.07;2.55;;;;;;;;;;7387375;19;20519;-74
2023/03/29 13:04:32;;;;;;;7.35;3.33;;;;;;;;;;7389148;19;19991;-73
2023/03/29 13:07:03;;;;;;;5.57;3.00;;;;;;;;;;7388896;19;19998;-75
2023/03/29 13:09:34;;;;;;;10.18;3.10;;;;;;;;;;7386254;19;20078;-74
2023/03/29 13:12:19;;;;;;;6.13;2.88;;;;;;;;;;7388224;19;19995;-75
2023/03/29 13:14:50;;;;;;;7.80;2.78;;;;;;;;;;7388315;19;19998;-75
2023/03/29 13:17:26;;;;;;;10.15;3.60;;;;;;;;;;7388555;19;20005;-76
2023/03/29 13:20:43;;;;;;;6.55;3.33;;;;;;;;;;7392058;19;20009;-74
2023/03/29 13:23:33;;;;;;;6.90;3.47;;;;;;;;;;7388345;19;19998;-73
2023/03/29 13:26:32;;;;;;;11.38;3.90;;;;;;;;;;7397730;19;19991;-76
2023/03/29 13:29:21;;;;;;;6.35;3.22;;;;;;;;;;7394986;19;20009;-75
2023/03/29 13:32:17;;;;;;;7.75;3.47;;;;;;;;;;7395874;19;20008;-75
2023/03/29 13:34:55;;;;;;;7.10;3.50;;;;;;;;;;7393178;19;20460;-75
2023/03/29 13:37:50;;;;;;;6.60;3.20;;;;;;;;;;7396278;19;20026;-75
2023/03/29 13:40:58;;;;;;;9.68;3.17;;;;;;;;;;7393656;19;20556;-75
2023/03/29 13:43:43;;;;;;;6.97;3.33;;;;;;;;;;7389223;19;19998;-75
2023/03/29 13:46:22;;;;;;;5.85;3.35;;;;;;;;;;7391687;19;20406;-75
2023/03/29 13:48:59;;;;;;;8.80;3.42;;;;;;;;;;7392537;19;20354;-75
2023/03/29 13:51:35;;;;;;;11.18;3.20;;;;;;;;;;7392967;19;20002;-74
2023/03/29 13:54:25;;;;;;;9.27;3.17;;;;;;;;;;7393329;19;19995;-75
2023/03/29 13:57:11;;;;;;;7.50;3.15;;;;;;;;;;7394291;19;20005;-74
2023/03/29 14:00:00;;;;;;;7.50;3.35;;;;;;;;;;7395198;19;20082;-74
2023/03/29 14:02:42;;;;;;;6.72;3.40;;;;;;;;;;7391082;19;20014;-74
2023/03/29 14:05:11;;;;;;;4.45;2.30;;;;;;;;;;7393469;19;19998;-75
2023/03/29 14:07:40;;;;;;;5.72;2.42;;;;;;;;;;7372004;19;20013;-76
2023/03/29 14:10:06;;;;;;;8.88;2.30;;;;;;;;;;7391634;19;20519;-74
2023/03/29 14:12:36;;;;;;;3.60;2.10;;;;;;;;;;7393615;19;19995;-74
2023/03/29 14:15:04;;;;;;;5.63;2.45;;;;;;;;;;7394020;19;20023;-74
2023/03/29 14:17:30;;;;;;;4.82;2.55;;;;;;;;;;7393782;19;20015;-76
2023/03/29 14:19:59;;;;;;;4.07;2.33;;;;;;;;;;7395030;19;20010;-75
2023/03/29 14:22:31;;;;;;;8.90;2.55;;;;;;;;;;7389998;19;20006;-75
2023/03/29 14:25:01;;;;;;;5.65;2.60;;;;;;;;;;7393467;19;19999;-73
2023/03/29 14:27:29;;;;;;;4.18;2.20;;;;;;;;;;7394326;19;20002;-73
2023/03/29 14:29:55;;;;;;;5.55;2.85;;;;;;;;;;7396817;19;20069;-74
2023/03/29 14:32:28;;;;;;;5.13;2.47;;;;;;;;;;7390743;19;20004;-73
2023/03/29 14:34:53;;;;;;;5.45;2.40;;;;;;;;;;7394258;19;20011;-75
2023/03/29 14:37:25;;;;;;;10.90;3.05;;;;;;;;;;7394286;19;19998;-75
2023/03/29 14:39:52;;;;;;;6.30;2.80;;;;;;;;;;7393642;19;20066;-75
2023/03/29 14:42:22;;;;;;;6.57;2.40;;;;;;;;;;7390591;19;20006;-75
2023/03/29 14:44:48;;;;;;;8.25;2.40;;;;;;;;;;7392277;19;20003;-75
2023/03/29 14:47:28;;;;;;;5.22;2.60;;;;;;;;;;7392870;19;19994;-75
2023/03/29 14:49:55;;;;;;;6.18;2.70;;;;;;;;;;7391623;19;20002;-75
2023/03/29 14:52:22;;;;;;;5.35;2.53;;;;;;;;;;7390792;19;19995;-75
2023/03/29 14:54:51;;;;;;;7.03;2.53;;;;;;;;;;7392792;19;19997;-73
2023/03/29 14:57:17;;;;;;;4.80;2.20;;;;;;;;;;7394006;19;19991;-74
2023/03/29 14:59:53;;;;;;;5.75;2.58;;;;;;;;;;7393320;19;20001;-74
2023/03/29 15:02:29;;;;;;;7.78;2.55;;;;;;;;;;7391079;19;19998;-77
2023/03/29 15:04:55;;;;;;;5.55;2.40;;;;;;;;;;7393355;19;20486;-74
2023/03/29 15:07:25;;;;;;;6.65;2.67;;;;;;;;;;7390776;19;19995;-76